createdAt,value
2018-05-13T00:00:03.112Z,5.20
2018-05-13T00:02:30.661Z,7.33
2018-05-13T00:04:58.111Z,4.13
2018-05-13T00:07:25.564Z,4.60
2018-05-13T00:09:53.036Z,4.90
2018-05-13T00:12:20.587Z,3.53
2018-05-13T00:14:48.142Z,4.60
2018-05-13T00:17:15.702Z,3.87
2018-05-13T00:19:43.163Z,7.37
2018-05-13T00:22:10.603Z,4.10
2018-05-13T00:24:38.071Z,3.83
2018-05-13T00:27:05.632Z,6.27
2018-05-13T00:29:33.259Z,5.47
2018-05-13T00:32:00.709Z,5.43
2018-05-13T00:34:28.967Z,3.73
2018-05-13T00:36:56.427Z,6.03
2018-05-13T00:39:23.875Z,4.80
2018-05-13T00:41:52.086Z,4.30
2018-05-13T00:44:19.659Z,3.57
2018-05-13T00:46:47.127Z,3.67
2018-05-13T00:49:14.579Z,3.77
2018-05-13T00:51:42.027Z,4.30
2018-05-13T00:54:21.297Z,3.33
2018-05-13T00:56:49.523Z,3.83
2018-05-13T00:59:16.987Z,3.73
2018-05-13T01:01:44.459Z,3.70
2018-05-13T01:04:11.912Z,4.50
2018-05-13T01:06:39.351Z,5.07
2018-05-13T01:09:07.051Z,5.47
2018-05-13T01:11:35.295Z,4.00
2018-05-13T01:14:02.862Z,6.83
2018-05-13T01:16:31.076Z,3.37
2018-05-13T01:18:58.548Z,4.27
2018-05-13T01:21:26.043Z,4.77
2018-05-13T01:23:53.497Z,5.77
2018-05-13T01:26:20.946Z,2.73
2018-05-13T01:28:48.413Z,4.37
2018-05-13T01:31:15.876Z,5.10
2018-05-13T01:33:43.424Z,3.77
2018-05-13T01:36:10.959Z,3.57
2018-05-13T01:38:38.444Z,4.10
2018-05-13T01:41:05.903Z,3.40
2018-05-13T01:43:33.456Z,4.10
2018-05-13T01:46:01.007Z,3.60
2018-05-13T01:48:28.462Z,2.93
2018-05-13T01:50:56.015Z,3.40
2018-05-13T01:53:23.583Z,4.60
2018-05-13T01:55:51.143Z,3.40
2018-05-13T01:58:18.797Z,3.77
2018-05-13T02:00:46.246Z,4.93
2018-05-13T02:03:13.703Z,4.07
2018-05-13T02:05:41.237Z,3.73
2018-05-13T02:08:08.722Z,3.70
2018-05-13T02:10:36.279Z,3.80
2018-05-13T02:13:03.739Z,3.07
2018-05-13T02:15:31.288Z,3.43
2018-05-13T02:17:58.743Z,3.13
2018-05-13T02:20:26.203Z,4.90
2018-05-13T02:22:53.663Z,3.73
2018-05-13T02:25:21.106Z,3.40
2018-05-13T02:27:48.742Z,3.90
2018-05-13T02:30:16.179Z,3.77
2018-05-13T02:32:43.631Z,2.73
2018-05-13T02:35:11.139Z,3.57
2018-05-13T02:37:38.591Z,3.10
2018-05-13T02:40:06.035Z,3.30
2018-05-13T02:42:33.494Z,3.17
2018-05-13T02:45:00.963Z,3.27
2018-05-13T02:47:28.414Z,3.47
2018-05-13T02:49:55.867Z,3.33
2018-05-13T02:52:23.331Z,3.27
2018-05-13T02:54:50.796Z,3.80
2018-05-13T02:57:18.250Z,3.47
2018-05-13T02:59:45.799Z,4.77
2018-05-13T03:02:13.251Z,7.20
2018-05-13T03:04:40.715Z,4.33
2018-05-13T03:07:08.164Z,3.27
2018-05-13T03:09:35.740Z,3.43
2018-05-13T03:12:03.197Z,3.87
2018-05-13T03:14:30.639Z,3.33
2018-05-13T03:16:58.092Z,3.30
2018-05-13T03:19:25.658Z,3.17
2018-05-13T03:21:53.885Z,4.63
2018-05-13T03:24:21.375Z,3.80
2018-05-13T03:26:48.823Z,3.30
2018-05-13T03:29:16.301Z,3.60
2018-05-13T03:31:43.855Z,4.40
2018-05-13T03:34:11.407Z,3.20
2018-05-13T03:36:38.872Z,3.63
2018-05-13T03:39:06.325Z,4.70
2018-05-13T03:41:33.879Z,4.17
2018-05-13T03:44:01.331Z,3.37
2018-05-13T03:46:28.791Z,3.63
2018-05-13T03:48:56.348Z,3.67
2018-05-13T03:51:23.803Z,4.77
2018-05-13T03:53:51.287Z,3.17
2018-05-13T03:56:18.737Z,2.97
2018-05-13T03:58:46.958Z,3.63
2018-05-13T04:01:14.436Z,6.00
2018-05-13T04:03:41.875Z,3.20
2018-05-13T04:06:09.323Z,3.40
2018-05-13T04:08:49.396Z,5.33
2018-05-13T04:11:28.951Z,3.50
2018-05-13T04:14:08.284Z,3.17
2018-05-13T04:16:35.729Z,3.07
2018-05-13T04:19:04.093Z,3.17
2018-05-13T04:21:31.523Z,3.40
2018-05-13T04:23:59.023Z,3.17
2018-05-13T04:26:26.482Z,3.67
2018-05-13T04:28:53.930Z,4.27
2018-05-13T04:31:21.491Z,2.80
2018-05-13T04:33:48.946Z,5.07
2018-05-13T04:36:16.412Z,6.80
2018-05-13T04:38:43.977Z,3.80
2018-05-13T04:41:11.524Z,3.57
2018-05-13T04:43:38.978Z,4.43
2018-05-13T04:46:06.504Z,3.77
2018-05-13T04:48:33.989Z,3.80
2018-05-13T04:51:01.448Z,3.83
2018-05-13T04:53:28.905Z,4.93
2018-05-13T04:55:56.352Z,3.33
2018-05-13T04:58:23.816Z,2.97
2018-05-13T05:00:51.274Z,3.00
2018-05-13T05:03:18.832Z,4.67
2018-05-13T05:05:46.283Z,3.13
2018-05-13T05:08:13.844Z,4.43
2018-05-13T05:10:41.294Z,3.97
2018-05-13T05:13:08.754Z,3.30
2018-05-13T05:15:36.307Z,3.47
2018-05-13T05:18:03.844Z,3.77
2018-05-13T05:20:31.327Z,3.47
2018-05-13T05:22:59.420Z,3.30
2018-05-13T05:25:26.963Z,3.63
2018-05-13T05:27:54.492Z,3.57
2018-05-13T05:30:21.971Z,4.47
2018-05-13T05:32:49.527Z,3.30
2018-05-13T05:35:17.518Z,5.03
2018-05-13T05:37:45.080Z,4.33
2018-05-13T05:40:12.532Z,4.03
2018-05-13T05:42:40.068Z,3.43
2018-05-13T05:45:07.633Z,4.40
2018-05-13T05:47:35.215Z,3.20
2018-05-13T05:50:02.748Z,3.50
2018-05-13T05:52:31.115Z,4.43
2018-05-13T05:54:58.568Z,3.33
2018-05-13T05:57:27.183Z,3.87
2018-05-13T05:59:55.527Z,3.70
2018-05-13T06:02:22.983Z,4.47
2018-05-13T06:04:50.442Z,3.97
2018-05-13T06:07:18.009Z,3.17
2018-05-13T06:09:45.474Z,5.27
2018-05-13T06:12:13.896Z,4.47
2018-05-13T06:14:41.283Z,4.07
2018-05-13T06:17:08.852Z,3.47
2018-05-13T06:19:37.210Z,3.67
2018-05-13T06:22:04.606Z,3.40
2018-05-13T06:24:32.857Z,3.70
2018-05-13T06:27:00.311Z,3.30
2018-05-13T06:29:27.868Z,3.57
2018-05-13T06:31:56.125Z,4.40
2018-05-13T06:34:23.496Z,4.23
2018-05-13T06:36:50.952Z,3.87
2018-05-13T06:39:18.415Z,3.83
2018-05-13T06:41:45.863Z,3.57
2018-05-13T06:44:13.320Z,4.07
2018-05-13T06:46:41.179Z,3.40
2018-05-13T06:49:08.646Z,3.13
2018-05-13T06:51:36.707Z,3.70
2018-05-13T06:54:04.162Z,12.30
2018-05-13T06:56:31.610Z,5.60
2018-05-13T06:58:59.071Z,8.17
2018-05-13T07:01:26.530Z,7.50
2018-05-13T07:03:53.990Z,20.20
2018-05-13T07:06:21.552Z,12.07
2018-05-13T07:08:49.098Z,32.97
2018-05-13T07:11:16.554Z,24.33
2018-05-13T07:13:44.011Z,11.17
2018-05-13T07:16:11.471Z,13.40
2018-05-13T07:18:38.922Z,10.60
2018-05-13T07:21:06.487Z,10.13
2018-05-13T07:23:34.034Z,10.47
2018-05-13T07:26:02.120Z,8.03
2018-05-13T07:28:29.566Z,11.33
2018-05-13T07:30:57.174Z,11.50
2018-05-13T07:33:24.761Z,9.03
2018-05-13T07:35:52.238Z,8.90
2018-05-13T07:38:19.692Z,9.10
2018-05-13T07:40:47.151Z,9.60
2018-05-13T07:43:15.437Z,9.83
2018-05-13T07:45:43.735Z,15.60
2018-05-13T07:48:12.083Z,15.77
2018-05-13T07:50:39.656Z,12.27
2018-05-13T07:53:07.102Z,18.30
2018-05-13T07:55:35.571Z,16.37
2018-05-13T07:58:03.133Z,17.87
2018-05-13T08:00:33.169Z,14.30
2018-05-13T08:03:00.710Z,13.63
2018-05-13T08:05:29.418Z,17.00
2018-05-13T08:07:56.867Z,15.50
2018-05-13T08:10:24.452Z,18.97
2018-05-13T08:12:52.024Z,13.27
2018-05-13T08:15:19.383Z,13.37
2018-05-13T08:17:46.923Z,16.37
2018-05-13T08:20:15.259Z,12.77
2018-05-13T08:22:42.776Z,9.10
2018-05-13T08:25:10.262Z,10.10
2018-05-13T08:27:38.381Z,10.50
2018-05-13T08:30:06.631Z,10.03
2018-05-13T08:32:34.306Z,10.33
2018-05-13T08:35:01.991Z,10.13
2018-05-13T08:37:29.487Z,9.97
2018-05-13T08:39:56.957Z,12.57
2018-05-13T08:42:24.617Z,9.27
2018-05-13T08:44:53.023Z,10.17
2018-05-13T08:47:21.629Z,12.23
2018-05-13T08:49:49.727Z,9.93
2018-05-13T08:52:17.198Z,10.30
2018-05-13T08:54:44.752Z,9.60
2018-05-13T08:57:12.203Z,10.90
2018-05-13T08:59:39.689Z,10.13
2018-05-13T09:02:07.186Z,9.27
2018-05-13T09:04:34.687Z,9.13
2018-05-13T09:07:02.144Z,9.13
2018-05-13T09:09:29.658Z,9.27
2018-05-13T09:11:57.147Z,9.17
2018-05-13T09:14:24.661Z,8.30
2018-05-13T09:16:52.154Z,20.17
2018-05-13T09:19:19.800Z,20.57
2018-05-13T09:21:47.270Z,18.43
2018-05-13T09:24:14.847Z,16.90
2018-05-13T09:26:42.323Z,10.17
2018-05-13T09:29:09.874Z,11.27
2018-05-13T09:31:37.411Z,10.10
2018-05-13T09:34:04.890Z,10.43
2018-05-13T09:36:33.156Z,10.37
2018-05-13T09:39:00.634Z,8.97
2018-05-13T09:41:28.863Z,8.73
2018-05-13T09:43:56.331Z,8.97
2018-05-13T09:46:25.011Z,9.93
2018-05-13T09:48:52.639Z,8.93
2018-05-13T09:51:20.225Z,7.83
2018-05-13T09:53:48.399Z,12.73
2018-05-13T09:56:15.959Z,15.97
2018-05-13T09:58:43.514Z,12.57
2018-05-13T10:01:10.972Z,11.00
2018-05-13T10:03:38.737Z,15.97
2018-05-13T10:06:06.183Z,11.13
2018-05-13T10:08:33.643Z,11.90
2018-05-13T10:11:01.095Z,16.00
2018-05-13T10:13:28.780Z,13.70
2018-05-13T10:15:56.319Z,10.93
2018-05-13T10:18:23.834Z,10.13
2018-05-13T10:20:53.979Z,9.90
2018-05-13T10:23:21.435Z,8.20
2018-05-13T10:25:49.838Z,8.40
2018-05-13T10:28:18.122Z,8.67
2018-05-13T10:30:45.664Z,10.83
2018-05-13T10:33:13.131Z,8.83
2018-05-13T10:35:41.356Z,12.07
2018-05-13T10:38:08.856Z,9.20
2018-05-13T10:40:36.311Z,10.20
2018-05-13T10:43:03.764Z,7.07
2018-05-13T10:45:31.214Z,9.03
2018-05-13T10:47:58.672Z,6.47
2018-05-13T10:50:26.127Z,10.00
2018-05-13T10:52:55.502Z,7.57
2018-05-13T10:55:22.943Z,7.30
2018-05-13T10:57:50.430Z,8.40
2018-05-13T11:00:17.901Z,6.53
2018-05-13T11:02:45.343Z,6.70
2018-05-13T11:05:12.799Z,6.43
2018-05-13T11:07:40.265Z,6.27
2018-05-13T11:10:07.827Z,8.90
2018-05-13T11:12:35.263Z,8.67
2018-05-13T11:15:02.723Z,6.87
2018-05-13T11:17:30.180Z,6.20
2018-05-13T11:19:57.742Z,7.87
2018-05-13T11:22:25.199Z,6.03
2018-05-13T11:24:52.663Z,6.03
2018-05-13T11:27:20.115Z,5.57
2018-05-13T11:29:47.563Z,6.20
2018-05-13T11:32:15.015Z,7.83
2018-05-13T11:34:42.467Z,5.77
2018-05-13T11:37:09.927Z,5.40
2018-05-13T11:39:37.382Z,6.20
2018-05-13T11:42:04.832Z,5.73
2018-05-13T11:44:32.304Z,5.83
2018-05-13T11:46:59.862Z,5.90
2018-05-13T11:49:28.120Z,5.77
2018-05-13T11:51:56.507Z,5.77
2018-05-13T11:54:25.190Z,5.80
2018-05-13T11:56:52.682Z,6.23
2018-05-13T11:59:20.927Z,6.27
2018-05-13T12:01:48.523Z,5.50
2018-05-13T12:04:16.759Z,6.00
2018-05-13T12:06:44.212Z,5.80
2018-05-13T12:09:11.679Z,5.67
2018-05-13T12:11:39.122Z,5.90
2018-05-13T12:14:06.579Z,5.97
2018-05-13T12:16:34.031Z,5.70
2018-05-13T12:19:01.495Z,6.20
2018-05-13T12:21:29.056Z,5.70
2018-05-13T12:23:56.515Z,5.30
2018-05-13T12:26:23.967Z,7.10
2018-05-13T12:28:51.552Z,5.00
2018-05-13T12:31:18.971Z,5.60
2018-05-13T12:33:46.531Z,5.30
2018-05-13T12:36:13.974Z,5.47
2018-05-13T12:38:42.056Z,5.30
2018-05-13T12:41:09.499Z,5.10
2018-05-13T12:43:36.964Z,5.33
2018-05-13T12:46:04.422Z,5.67
2018-05-13T12:48:31.874Z,5.40
2018-05-13T12:50:59.436Z,7.23
2018-05-13T12:53:26.887Z,5.13
2018-05-13T12:55:54.446Z,5.30
2018-05-13T12:58:21.910Z,5.47
2018-05-13T13:00:49.363Z,4.77
2018-05-13T13:03:16.830Z,5.30
2018-05-13T13:05:44.389Z,5.43
2018-05-13T13:08:11.831Z,5.33
2018-05-13T13:10:39.279Z,5.47
2018-05-13T13:13:06.739Z,5.07
2018-05-13T13:15:34.197Z,5.10
2018-05-13T13:18:01.653Z,5.07
2018-05-13T13:20:29.100Z,4.87
2018-05-13T13:22:56.551Z,4.90
2018-05-13T13:25:24.008Z,5.57
2018-05-13T13:27:51.472Z,5.07
2018-05-13T13:30:18.934Z,4.60
2018-05-13T13:32:46.379Z,4.80
2018-05-13T13:35:13.834Z,5.23
2018-05-13T13:37:41.299Z,5.03
2018-05-13T13:40:08.751Z,5.10
2018-05-13T13:42:36.209Z,4.97
2018-05-13T13:45:03.670Z,5.00
2018-05-13T13:47:31.226Z,5.33
2018-05-13T13:49:58.781Z,4.90
2018-05-13T13:52:26.539Z,4.40
2018-05-13T13:54:53.991Z,4.70
2018-05-13T13:57:21.443Z,5.23
2018-05-13T13:59:48.896Z,5.40
2018-05-13T14:02:16.366Z,4.93
2018-05-13T14:04:43.820Z,4.30
2018-05-13T14:07:11.278Z,6.17
2018-05-13T14:09:38.839Z,4.47
2018-05-13T14:12:06.280Z,4.53
2018-05-13T14:14:33.848Z,5.00
2018-05-13T14:17:01.308Z,4.73
2018-05-13T14:19:28.759Z,4.30
2018-05-13T14:21:56.209Z,4.43
2018-05-13T14:24:23.710Z,4.90
2018-05-13T14:26:52.039Z,4.93
2018-05-13T14:29:19.472Z,4.60
2018-05-13T14:31:46.930Z,4.50
2018-05-13T14:34:14.376Z,4.40
2018-05-13T14:36:41.863Z,4.50
2018-05-13T14:39:12.256Z,4.80
2018-05-13T14:41:36.779Z,4.43
2018-05-13T14:44:04.223Z,4.40
2018-05-13T14:46:31.679Z,4.73
2018-05-13T14:48:59.135Z,4.13
2018-05-13T14:51:26.591Z,4.93
2018-05-13T14:53:54.070Z,4.63
2018-05-13T14:56:21.521Z,4.53
2018-05-13T14:58:49.067Z,4.77
2018-05-13T15:01:16.526Z,4.10
2018-05-13T15:03:43.979Z,4.17
2018-05-13T15:06:11.852Z,4.20
2018-05-13T15:08:39.302Z,4.27
2018-05-13T15:11:06.760Z,4.43
2018-05-13T15:13:34.208Z,4.20
2018-05-13T15:16:01.661Z,4.20
2018-05-13T15:18:29.128Z,4.10
2018-05-13T15:20:57.173Z,4.67
2018-05-13T15:23:24.660Z,4.30
2018-05-13T15:25:52.116Z,4.33
2018-05-13T15:28:19.664Z,4.13
2018-05-13T15:30:47.143Z,4.03
2018-05-13T15:33:14.679Z,4.33
2018-05-13T15:35:42.232Z,3.83
2018-05-13T15:38:09.703Z,4.30
2018-05-13T15:40:37.242Z,4.03
2018-05-13T15:43:04.798Z,3.80
2018-05-13T15:45:32.169Z,3.87
2018-05-13T15:47:59.749Z,4.10
2018-05-13T15:50:28.060Z,4.07
2018-05-13T15:52:55.508Z,4.17
2018-05-13T15:55:22.959Z,4.10
2018-05-13T15:57:50.461Z,3.90
2018-05-13T16:00:17.907Z,4.13
2018-05-13T16:02:45.360Z,4.03
2018-05-13T16:05:12.806Z,4.10
2018-05-13T16:07:40.259Z,4.30
2018-05-13T16:10:07.704Z,4.03
2018-05-13T16:12:35.170Z,4.10
2018-05-13T16:15:02.624Z,3.67
2018-05-13T16:17:30.110Z,3.80
2018-05-13T16:19:57.557Z,3.60
2018-05-13T16:22:25.015Z,3.63
2018-05-13T16:24:52.468Z,3.70
2018-05-13T16:27:20.034Z,3.43
2018-05-13T16:29:47.475Z,3.97
2018-05-13T16:32:14.950Z,4.10
2018-05-13T16:34:42.495Z,3.97
2018-05-13T16:37:10.119Z,3.50
2018-05-13T16:39:37.894Z,3.80
2018-05-13T16:42:05.343Z,3.90
2018-05-13T16:44:33.741Z,4.03
2018-05-13T16:47:01.531Z,3.97
2018-05-13T16:49:29.147Z,3.80
2018-05-13T16:51:56.618Z,3.83
2018-05-13T16:54:24.094Z,3.80
2018-05-13T16:56:51.609Z,3.90
2018-05-13T16:59:19.168Z,4.13
2018-05-13T17:01:46.628Z,5.90
2018-05-13T17:04:14.084Z,6.73
2018-05-13T17:06:41.571Z,10.27
2018-05-13T17:09:09.043Z,6.57
2018-05-13T17:11:38.895Z,6.90
2018-05-13T17:14:06.409Z,5.33
2018-05-13T17:16:33.875Z,5.47
2018-05-13T17:19:02.193Z,8.63
2018-05-13T17:21:29.639Z,6.77
2018-05-13T17:23:57.147Z,4.40
2018-05-13T17:26:24.603Z,9.73
2018-05-13T17:28:52.524Z,9.13
2018-05-13T17:31:19.985Z,8.10
2018-05-13T17:33:47.431Z,3.83
2018-05-13T17:36:14.911Z,7.47
2018-05-13T17:38:42.377Z,5.53
2018-05-13T17:41:09.843Z,3.83
2018-05-13T17:43:37.289Z,7.13
2018-05-13T17:46:04.747Z,5.03
2018-05-13T17:48:32.203Z,7.23
2018-05-13T17:50:59.651Z,6.17
2018-05-13T17:53:27.118Z,9.00
2018-05-13T17:55:55.090Z,7.93
2018-05-13T17:58:22.547Z,10.27
2018-05-13T18:00:50.187Z,7.33
2018-05-13T18:03:18.457Z,8.97
2018-05-13T18:05:45.788Z,8.37
2018-05-13T18:08:13.277Z,6.93
2018-05-13T18:10:40.732Z,10.67
2018-05-13T18:13:08.691Z,12.67
2018-05-13T18:15:36.147Z,10.07
2018-05-13T18:18:03.608Z,6.63
2018-05-13T18:20:31.089Z,6.67
2018-05-13T18:22:58.559Z,4.67
2018-05-13T18:25:26.769Z,5.80
2018-05-13T18:27:55.877Z,8.40
2018-05-13T18:30:24.376Z,6.60
2018-05-13T18:32:51.861Z,9.87
2018-05-13T18:35:19.331Z,6.70
2018-05-13T18:37:47.576Z,8.10
2018-05-13T18:40:15.836Z,7.33
2018-05-13T18:42:43.368Z,5.83
2018-05-13T18:45:10.842Z,13.70
2018-05-13T18:47:38.412Z,8.73
2018-05-13T18:50:05.856Z,8.23
2018-05-13T18:52:35.393Z,6.63
2018-05-13T18:55:03.641Z,7.83
2018-05-13T18:57:31.179Z,8.27
2018-05-13T18:59:58.630Z,5.20
2018-05-13T19:02:26.931Z,5.77
2018-05-13T19:04:54.425Z,9.17
2018-05-13T19:07:22.653Z,7.40
2018-05-13T19:09:50.127Z,6.40
2018-05-13T19:12:18.219Z,6.30
2018-05-13T19:14:45.594Z,4.70
2018-05-13T19:17:13.051Z,5.13
2018-05-13T19:19:40.553Z,6.93
2018-05-13T19:22:07.993Z,4.97
2018-05-13T19:24:36.027Z,6.97
2018-05-13T19:27:03.475Z,8.07
2018-05-13T19:29:31.170Z,4.33
2018-05-13T19:31:58.624Z,3.60
2018-05-13T19:34:26.156Z,5.37
2018-05-13T19:36:53.733Z,6.27
2018-05-13T19:39:21.148Z,8.23
2018-05-13T19:41:49.374Z,6.73
2018-05-13T19:44:16.823Z,6.13
2018-05-13T19:46:44.315Z,8.07
2018-05-13T19:49:11.857Z,6.47
2018-05-13T19:51:39.307Z,5.17
2018-05-13T19:54:06.940Z,6.77
2018-05-13T19:56:34.296Z,5.30
2018-05-13T19:59:01.762Z,6.03
2018-05-13T20:01:29.272Z,7.40
2018-05-13T20:03:58.796Z,10.47
2018-05-13T20:06:27.091Z,4.70
2018-05-13T20:08:54.640Z,10.33
2018-05-13T20:11:22.036Z,8.10
2018-05-13T20:13:49.492Z,5.60
2018-05-13T20:16:16.944Z,6.57
2018-05-13T20:18:44.407Z,8.00
2018-05-13T20:21:11.952Z,8.73
2018-05-13T20:23:39.511Z,6.03
2018-05-13T20:26:07.068Z,7.57
2018-05-13T20:28:34.531Z,6.50
2018-05-13T20:31:01.999Z,5.90
2018-05-13T20:33:30.263Z,9.53
2018-05-13T20:35:57.747Z,8.90
2018-05-13T20:38:25.236Z,6.50
2018-05-13T20:40:52.679Z,7.33
2018-05-13T20:43:20.152Z,8.47
2018-05-13T20:45:47.631Z,8.27
2018-05-13T20:48:15.129Z,8.67
2018-05-13T20:50:43.379Z,5.87
2018-05-13T20:53:10.840Z,9.33
2018-05-13T20:55:38.376Z,7.80
2018-05-13T20:58:05.827Z,5.20
2018-05-13T21:00:33.300Z,8.93
2018-05-13T21:03:00.743Z,6.80
2018-05-13T21:05:28.214Z,7.87
2018-05-13T21:07:56.276Z,5.83
2018-05-13T21:10:23.734Z,6.17
2018-05-13T21:12:51.175Z,9.37
2018-05-13T21:15:18.638Z,6.60
2018-05-13T21:17:46.163Z,6.70
2018-05-13T21:20:13.667Z,8.10
2018-05-13T21:22:41.213Z,10.07
2018-05-13T21:25:08.667Z,6.50
2018-05-13T21:27:36.115Z,6.20
2018-05-13T21:30:03.645Z,6.37
2018-05-13T21:32:31.159Z,5.37
2018-05-13T21:34:58.665Z,4.53
2018-05-13T21:37:26.143Z,4.97
2018-05-13T21:39:53.699Z,8.50
2018-05-13T21:42:21.159Z,7.57
2018-05-13T21:44:48.732Z,7.07
2018-05-13T21:47:16.280Z,7.33
2018-05-13T21:49:43.907Z,7.03
2018-05-13T21:52:11.358Z,9.83
2018-05-13T21:54:38.837Z,6.83
2018-05-13T21:57:06.247Z,6.10
2018-05-13T21:59:33.762Z,6.60
2018-05-13T22:02:01.387Z,4.93
2018-05-13T22:04:29.365Z,4.77
2018-05-13T22:06:56.836Z,5.70
2018-05-13T22:09:24.469Z,7.60
2018-05-13T22:11:51.909Z,7.27
2018-05-13T22:14:19.372Z,4.83
2018-05-13T22:16:46.824Z,5.23
2018-05-13T22:19:14.298Z,6.97
2018-05-13T22:21:41.739Z,8.70
2018-05-13T22:24:09.191Z,6.10
2018-05-13T22:26:36.758Z,4.37
2018-05-13T22:29:04.192Z,4.13
2018-05-13T22:31:31.647Z,7.20
2018-05-13T22:33:59.095Z,5.37
2018-05-13T22:36:27.418Z,5.10
2018-05-13T22:38:54.855Z,5.57
2018-05-13T22:41:22.305Z,5.77
2018-05-13T22:43:49.747Z,6.37
2018-05-13T22:46:17.203Z,5.07
2018-05-13T22:48:44.651Z,4.90
2018-05-13T22:51:12.875Z,7.47
2018-05-13T22:53:40.408Z,4.67
2018-05-13T22:56:07.891Z,4.73
2018-05-13T22:58:35.351Z,4.87
2018-05-13T23:01:02.811Z,4.37
2018-05-13T23:03:30.259Z,3.50
2018-05-13T23:05:57.815Z,3.27
2018-05-13T23:08:25.283Z,5.87
2018-05-13T23:10:52.759Z,3.80
2018-05-13T23:13:20.967Z,7.77
2018-05-13T23:15:48.463Z,3.33
2018-05-13T23:18:16.056Z,4.00
2018-05-13T23:20:44.304Z,5.00
2018-05-13T23:23:11.852Z,4.73
2018-05-13T23:25:39.328Z,4.60
2018-05-13T23:28:06.875Z,3.50
2018-05-13T23:30:34.419Z,4.33
2018-05-13T23:33:01.892Z,4.93
2018-05-13T23:35:29.437Z,5.23
2018-05-13T23:37:56.894Z,3.80
2018-05-13T23:40:24.355Z,6.80
2018-05-13T23:42:51.915Z,5.03
2018-05-13T23:45:19.467Z,4.10
2018-05-13T23:47:46.922Z,6.57
2018-05-13T23:50:14.373Z,4.07
2018-05-13T23:52:41.844Z,5.57
2018-05-13T23:55:09.397Z,5.07
2018-05-13T23:57:36.953Z,4.73
